| time (UTC) | temp C | wind direction | speed KPH | gust KPH | rain 1hr cm | rain 24hr cm | rain mn cm | humidity % | barometer mb |
| 20260506034104 | 20 | 183 | 9.7 | 19.3 | 0.00 | 0.00 | 0.00 | 39 | 1010.3 |
| 20260506031605 | 20 | 192 | 12.9 | 32.2 | 0.00 | 0.00 | 0.00 | 38 | 1010.3 |
| 20260506031105 | 21 | 181 | 11.3 | 22.5 | 0.00 | 0.00 | 0.00 | 38 | 1010.2 |
| 20260506030604 | 21 | 196 | 12.9 | 24.1 | 0.00 | 0.00 | 0.00 | 37 | 1010.2 |
| 20260506030104 | 21 | 196 | 8.0 | 19.3 | 0.00 | 0.00 | 0.00 | 36 | 1010.2 |
| 20260506024604 | 21 | 198 | 6.4 | 16.1 | 0.00 | 0.00 | 0.00 | 34 | 1010.4 |
| 20260506024105 | 22 | 196 | 8.0 | 19.3 | 0.00 | 0.00 | 0.00 | 33 | 1010.4 |
| 20260506023104 | 22 | 204 | 8.0 | 19.3 | 0.00 | 0.00 | 0.00 | 33 | 1010.4 |
| 20260506021606 | 22 | 221 | 8.0 | 20.9 | 0.00 | 0.00 | 0.00 | 32 | 1010.4 |
| 20260506020106 | 22 | 232 | 8.0 | 16.1 | 0.00 | 0.00 | 0.00 | 32 | 1010.4 |
| 20260506014606 | 22 | 226 | 8.0 | 19.3 | 0.00 | 0.00 | 0.00 | 31 | 1010.4 |
| 20260506012606 | 22 | 227 | 6.4 | 19.3 | 0.00 | 0.00 | 0.00 | 32 | 1010.1 |
| 20260506010606 | 22 | 208 | 9.7 | 19.3 | 0.00 | 0.00 | 0.00 | 30 | 1009.9 |
| 20260506005606 | 23 | 220 | 8.0 | 19.3 | 0.00 | 0.00 | 0.00 | 30 | 1009.8 |
| 20260506004106 | 23 | 204 | 12.9 | 33.8 | 0.00 | 0.00 | 0.00 | 30 | 1009.6 |
| 20260506002105 | 23 | 207 | 11.3 | 20.9 | 0.00 | 0.00 | 0.00 | 31 | 1009.3 |
| 20260506001606 | 23 | 209 | 8.0 | 14.5 | 0.00 | 0.00 | 0.00 | 31 | 1009.3 |
| 20260506001106 | 23 | 198 | 8.0 | 14.5 | 0.00 | 0.00 | 0.00 | 32 | 1009.2 |
| 20260506000606 | 23 | 198 | 6.4 | 16.1 | 0.00 | 0.00 | 0.00 | 32 | 1009.2 |
| 20260505235105 | 23 | 217 | 9.7 | 20.9 | 0.00 | 0.00 | 0.00 | 31 | 1009.1 |
| 20260505234106 | 24 | 201 | 11.3 | 24.1 | 0.00 | 0.00 | 0.00 | 30 | 1009.1 |
| 20260505233106 | 24 | 194 | 9.7 | 20.9 | 0.00 | 0.00 | 0.00 | 30 | 1009.2 |
| 20260505232105 | 24 | 204 | 9.7 | 24.1 | 0.00 | 0.00 | 0.00 | 31 | 1009.1 |
| 20260505231106 | 24 | 197 | 11.3 | 24.1 | 0.00 | 0.00 | 0.00 | 31 | 1009.0 |
| 20260505230106 | 25 | 195 | 9.7 | 19.3 | 0.00 | 0.00 | 0.00 | 30 | 1009.0 |
| 20260505225605 | 25 | 192 | 14.5 | 33.8 | 0.00 | 0.00 | 0.00 | 30 | 1009.0 |
| 20260505224606 | 25 | 190 | 9.7 | 29.0 | 0.00 | 0.00 | 0.00 | 31 | 1009.0 |
| 20260505223105 | 25 | 222 | 8.0 | 22.5 | 0.00 | 0.00 | 0.00 | 32 | 1009.0 |
| 20260505222106 | 25 | 212 | 11.3 | 32.2 | 0.00 | 0.00 | 0.00 | 31 | 1009.1 |
| 20260505215605 | 25 | 220 | 11.3 | 32.2 | 0.00 | 0.00 | 0.00 | 32 | 1009.1 |
| 20260505215105 | 25 | 218 | 11.3 | 22.5 | 0.00 | 0.00 | 0.00 | 31 | 1009.1 |
| 20260505214605 | 25 | 226 | 14.5 | 25.7 | 0.00 | 0.00 | 0.00 | 32 | 1009.2 |
| 20260505213105 | 26 | 217 | 11.3 | 19.3 | 0.00 | 0.00 | 0.00 | 32 | 1009.0 |
| 20260505212606 | 26 | 224 | 8.0 | 22.5 | 0.00 | 0.00 | 0.00 | 32 | 1009.0 |
| 20260505212106 | 26 | 231 | 8.0 | 19.3 | 0.00 | 0.00 | 0.00 | 32 | 1008.9 |
| 20260505210105 | 26 | 245 | 16.1 | 32.2 | 0.00 | 0.00 | 0.00 | 26 | 1008.8 |
| 20260505205105 | 27 | 221 | 12.9 | 24.1 | 0.00 | 0.00 | 0.00 | 25 | 1008.8 |
| 20260505204605 | 27 | 222 | 17.7 | 32.2 | 0.00 | 0.00 | 0.00 | 25 | 1008.9 |
| 20260505204105 | 27 | 210 | 14.5 | 27.4 | 0.00 | 0.00 | 0.00 | 25 | 1008.9 |
| 20260505203105 | 27 | 230 | 14.5 | 27.4 | 0.00 | 0.00 | 0.00 | 27 | 1009.0 |
| 20260505202606 | 27 | 221 | 11.3 | 27.4 | 0.00 | 0.00 | 0.00 | 28 | 1008.9 |
| 20260505202105 | 26 | 240 | 9.7 | 24.1 | 0.00 | 0.00 | 0.00 | 29 | 1008.9 |
| 20260505201605 | 26 | 242 | 19.3 | 33.8 | 0.00 | 0.00 | 0.00 | 27 | 1008.9 |
| 20260505201105 | 27 | 237 | 11.3 | 27.4 | 0.00 | 0.00 | 0.00 | 27 | 1008.9 |
| 20260505200605 | 27 | 251 | 19.3 | 29.0 | 0.00 | 0.00 | 0.00 | 25 | 1009.2 |
| 20260505195605 | 27 | 260 | 17.7 | 25.7 | 0.00 | 0.00 | 0.00 | 28 | 1009.2 |
| 20260505193605 | 27 | 212 | 9.7 | 19.3 | 0.00 | 0.00 | 0.00 | 34 | 1009.5 |
| 20260505192605 | 26 | 228 | 16.1 | 32.2 | 0.00 | 0.00 | 0.00 | 32 | 1009.6 |
| 20260505192105 | 27 | 229 | 11.3 | 25.7 | 0.00 | 0.00 | 0.00 | 31 | 1009.6 |
| 20260505191605 | 27 | 246 | 11.3 | 24.1 | 0.00 | 0.00 | 0.00 | 30 | 1009.7 |
| 20260505191105 | 27 | 257 | 9.7 | 22.5 | 0.00 | 0.00 | 0.00 | 32 | 1009.8 |
| 20260505184605 | 27 | 221 | 12.9 | 29.0 | 0.00 | 0.00 | 0.00 | 32 | 1010.1 |
| 20260505184105 | 27 | 223 | 11.3 | 22.5 | 0.00 | 0.00 | 0.00 | 33 | 1010.0 |
| 20260505183105 | 26 | 235 | 12.9 | 27.4 | 0.00 | 0.00 | 0.00 | 33 | 1010.2 |
| 20260505182606 | 26 | 217 | 14.5 | 24.1 | 0.00 | 0.00 | 0.00 | 33 | 1010.2 |
| 20260505182105 | 26 | 213 | 12.9 | 27.4 | 0.00 | 0.00 | 0.00 | 32 | 1010.2 |
| 20260505181605 | 26 | 224 | 11.3 | 32.2 | 0.00 | 0.00 | 0.00 | 34 | 1010.4 |
| 20260505180606 | 26 | 219 | 11.3 | 19.3 | 0.00 | 0.00 | 0.00 | 33 | 1010.4 |
| 20260505180105 | 26 | 236 | 12.9 | 22.5 | 0.00 | 0.00 | 0.00 | 33 | 1010.5 |
| 20260505175605 | 26 | 242 | 12.9 | 20.9 | 0.00 | 0.00 | 0.00 | 34 | 1010.6 |
| 20260505175105 | 26 | 231 | 12.9 | 24.1 | 0.00 | 0.00 | 0.00 | 32 | 1010.7 |
| 20260505174605 | 26 | 251 | 8.0 | 20.9 | 0.00 | 0.00 | 0.00 | 35 | 1010.6 |
| 20260505173605 | 26 | 220 | 9.7 | 20.9 | 0.00 | 0.00 | 0.00 | 35 | 1010.7 |
| 20260505173105 | 26 | 231 | 12.9 | 24.1 | 0.00 | 0.00 | 0.00 | 36 | 1010.7 |
| 20260505172605 | 26 | 228 | 12.9 | 24.1 | 0.00 | 0.00 | 0.00 | 34 | 1010.8 |
| 20260505162605 | 25 | 217 | 8.0 | 22.5 | 0.00 | 0.00 | 0.00 | 40 | 1011.5 |
| 20260505162105 | 25 | 223 | 16.1 | 24.1 | 0.00 | 0.00 | 0.00 | 38 | 1011.8 |
| 20260505161605 | 25 | 258 | 6.4 | 19.3 | 0.00 | 0.00 | 0.00 | 38 | 1011.8 |
| 20260505160105 | 25 | 258 | 8.0 | 19.3 | 0.00 | 0.00 | 0.00 | 40 | 1012.0 |
| 20260505153105 | 23 | 247 | 11.3 | 25.7 | 0.00 | 0.00 | 0.00 | 41 | 1012.1 |
| 20260505140605 | 22 | 208 | 8.0 | 19.3 | 0.00 | 0.00 | 0.00 | 46 | 1012.1 |
| 20260505124605 | 18 | 189 | 8.0 | 16.1 | 0.00 | 0.00 | 0.00 | 52 | 1012.8 |
| 20260505123604 | 18 | 223 | 6.4 | 19.3 | 0.00 | 0.00 | 0.00 | 53 | 1012.9 |
| 20260505122605 | 18 | 218 | 8.0 | 19.3 | 0.00 | 0.00 | 0.00 | 54 | 1013.1 |
| 20260505115105 | 17 | 231 | 8.0 | 16.1 | 0.00 | 0.00 | 0.00 | 54 | 1013.0 |
| 20260505114105 | 17 | 219 | 3.2 | 19.3 | 0.00 | 0.00 | 0.00 | 54 | 1012.9 |
| 20260505112605 | 17 | 226 | 8.0 | 19.3 | 0.00 | 0.00 | 0.00 | 53 | 1012.7 |
| 20260505112104 | 17 | 244 | 8.0 | 19.3 | 0.00 | 0.00 | 0.00 | 54 | 1012.6 |
| 20260505111604 | 17 | 238 | 8.0 | 16.1 | 0.00 | 0.00 | 0.00 | 54 | 1012.6 |
| 20260505102105 | 17 | 226 | 6.4 | 12.9 | 0.00 | 0.00 | 0.00 | 52 | 1011.9 |
| 20260505101104 | 17 | 223 | 8.0 | 19.3 | 0.00 | 0.00 | 0.00 | 51 | 1011.9 |
| 20260505100105 | 17 | 231 | 8.0 | 16.1 | 0.00 | 0.00 | 0.00 | 51 | 1011.8 |
| 20260505095104 | 18 | 219 | 8.0 | 19.3 | 0.00 | 0.00 | 0.00 | 51 | 1011.9 |
| 20260505094604 | 18 | 220 | 8.0 | 14.5 | 0.00 | 0.00 | 0.00 | 50 | 1011.8 |
| 20260505091604 | 17 | 224 | 8.0 | 19.3 | 0.00 | 0.00 | 0.00 | 52 | 1011.7 |
| 20260505090605 | 17 | 204 | 8.0 | 19.3 | 0.00 | 0.00 | 0.00 | 52 | 1011.6 |
| 20260505090105 | 17 | 207 | 11.3 | 19.3 | 0.00 | 0.00 | 0.00 | 52 | 1011.6 |
| 20260505085105 | 18 | 213 | 8.0 | 22.5 | 0.00 | 0.00 | 0.00 | 52 | 1011.7 |
| 20260505084105 | 18 | 231 | 9.7 | 19.3 | 0.00 | 0.00 | 0.00 | 52 | 1011.6 |
| 20260505082604 | 18 | 217 | 8.0 | 22.5 | 0.00 | 0.00 | 0.00 | 52 | 1011.5 |
| 20260505082104 | 18 | 216 | 9.7 | 20.9 | 0.00 | 0.00 | 0.00 | 52 | 1011.5 |
| 20260505081104 | 18 | 226 | 9.7 | 19.3 | 0.00 | 0.00 | 0.00 | 53 | 1011.5 |
| 20260505075604 | 18 | 219 | 11.3 | 20.9 | 0.00 | 0.00 | 0.00 | 53 | 1011.5 |
| 20260505074604 | 18 | 227 | 4.8 | 14.5 | 0.00 | 0.00 | 0.00 | 53 | 1011.5 |
| 20260505072104 | 16 | 215 | 3.2 | 12.9 | 0.00 | 0.00 | 0.00 | 58 | 1011.3 |
| 20260505071604 | 16 | 197 | 8.0 | 16.1 | 0.00 | 0.00 | 0.00 | 58 | 1011.2 |
| 20260505065604 | 17 | 190 | 8.0 | 11.3 | 0.00 | 0.00 | 0.00 | 54 | 1011.2 |
| 20260505064104 | 17 | 218 | 3.2 | 4.8 | 0.00 | 0.00 | 0.00 | 53 | 1011.2 |
| 20260505063105 | 16 | 233 | 6.4 | 11.3 | 0.00 | 0.00 | 0.00 | 56 | 1011.3 |
| 20260505062605 | 16 | 212 | 3.2 | 8.0 | 0.00 | 0.00 | 0.00 | 58 | 1011.3 |
| 20260505062104 | 16 | 188 | 3.2 | 8.0 | 0.00 | 0.00 | 0.00 | 58 | 1011.3 |
| 20260505060104 | 16 | 185 | 3.2 | 8.0 | 0.00 | 0.00 | 0.00 | 57 | 1011.5 |
| 20260505054604 | 17 | 209 | 3.2 | 9.7 | 0.00 | 0.00 | 0.00 | 56 | 1011.6 |
| 20260505054104 | 17 | 188 | 4.8 | 9.7 | 0.00 | 0.00 | 0.00 | 56 | 1011.6 |
| 20260505053104 | 17 | 192 | 6.4 | 12.9 | 0.00 | 0.00 | 0.00 | 54 | 1011.6 |
| 20260505052105 | 18 | 220 | 4.8 | 11.3 | 0.00 | 0.00 | 0.00 | 54 | 1011.6 |
| 20260505050104 | 18 | 227 | 9.7 | 19.3 | 0.00 | 0.00 | 0.00 | 54 | 1011.7 |
| 20260505041109 | 18 | 220 | 8.0 | 16.1 | 0.00 | 0.00 | 0.00 | 54 | 1011.3 |
| 20260505040605 | 18 | 229 | 8.0 | 19.3 | 0.00 | 0.00 | 0.00 | 54 | 1011.4 |
| 20260505035104 | 18 | 225 | 8.0 | 11.3 | 0.00 | 0.00 | 0.00 | 53 | 1011.5 |
| 20260505034604 | 18 | 222 | 8.0 | 16.1 | 0.00 | 0.00 | 0.00 | 53 | 1011.5 |